createdAt,value
2022-10-07T00:00:03.068Z,4.96
2022-10-07T00:05:02.505Z,4.58
2022-10-07T00:10:03.063Z,4.45
2022-10-07T00:15:02.766Z,4.16
2022-10-07T00:20:02.411Z,4.2
2022-10-07T00:25:03.155Z,4.18
2022-10-07T00:30:08.528Z,3.86
2022-10-07T00:35:02.762Z,3.76
2022-10-07T00:40:02.814Z,3.95
2022-10-07T00:45:02.465Z,4.17
2022-10-07T00:50:03.067Z,4.4
2022-10-07T00:55:03.949Z,5.11
2022-10-07T01:00:02.575Z,5.27
2022-10-07T01:05:03.235Z,5.46
2022-10-07T01:10:02.828Z,5.43
2022-10-07T01:15:03.536Z,5.74
2022-10-07T01:20:03.086Z,5.92
2022-10-07T01:25:02.722Z,5.77
2022-10-07T01:30:03.389Z,5.59
2022-10-07T01:35:03.198Z,5.23
2022-10-07T01:40:02.937Z,4.15
2022-10-07T01:45:02.830Z,3.92
2022-10-07T01:50:03.221Z,4.41
2022-10-07T01:55:04.205Z,3.93
2022-10-07T02:00:02.573Z,4.42
2022-10-07T02:05:03.189Z,4.72
2022-10-07T02:10:02.845Z,4.61
2022-10-07T02:15:02.510Z,4.72
2022-10-07T02:20:03.167Z,4.56
2022-10-07T02:25:02.766Z,4.96
2022-10-07T02:30:02.427Z,5.07
2022-10-07T02:35:03.003Z,5.28
2022-10-07T02:40:02.977Z,5.44
2022-10-07T02:45:03.093Z,5.45
2022-10-07T02:50:02.713Z,5.43
2022-10-07T02:55:03.810Z,5.35
2022-10-07T03:00:06.281Z,5.45
2022-10-07T03:05:03.046Z,5.4
2022-10-07T03:10:02.712Z,5.32
2022-10-07T03:15:02.357Z,5.34
2022-10-07T03:20:02.998Z,5.33
2022-10-07T03:25:03.083Z,5.21
2022-10-07T03:30:02.654Z,5.1
2022-10-07T03:35:02.232Z,4.98
2022-10-07T03:40:02.848Z,4.86
2022-10-07T03:45:02.805Z,5.21
2022-10-07T03:50:02.575Z,5.24
2022-10-07T03:55:03.409Z,5.29
2022-10-07T04:00:02.867Z,5.16
2022-10-07T04:05:02.650Z,5.07
2022-10-07T04:10:02.341Z,5.23
2022-10-07T04:15:03.005Z,5.11
2022-10-07T04:20:02.767Z,5.04
2022-10-07T04:25:02.405Z,5.18
2022-10-07T04:30:03.158Z,5.15
2022-10-07T04:35:02.838Z,4.81
2022-10-07T04:40:02.536Z,4.64
2022-10-07T04:45:02.446Z,4.57
2022-10-07T04:50:03.033Z,4.77
2022-10-07T04:55:04.225Z,4.81
2022-10-07T05:00:02.479Z,4.94
2022-10-07T05:05:03.227Z,4.94
2022-10-07T05:10:02.868Z,4.99
2022-10-07T05:15:02.702Z,4.98
2022-10-07T05:20:02.339Z,5.05
2022-10-07T05:25:03.007Z,4.83
2022-10-07T05:30:02.689Z,4.77
2022-10-07T05:35:02.342Z,4.7
2022-10-07T05:40:03.024Z,4.66
2022-10-07T05:45:02.763Z,4.75
2022-10-07T05:50:02.432Z,4.95
2022-10-07T05:55:04.093Z,5.09
2022-10-07T06:00:02.790Z,5.22
2022-10-07T06:05:02.419Z,5.36
2022-10-07T06:10:03.138Z,5.46
2022-10-07T06:15:02.856Z,6.2
2022-10-07T06:20:02.620Z,7.31
2022-10-07T06:25:03.314Z,8.09
2022-10-07T06:30:03.237Z,8.32
2022-10-07T06:35:02.891Z,9.23
2022-10-07T06:40:02.665Z,9.75
2022-10-07T06:45:02.410Z,10.19
2022-10-07T06:50:03.028Z,10.61
2022-10-07T06:55:03.814Z,10.44
2022-10-07T07:00:03.248Z,11.14
2022-10-07T07:10:02.635Z,11.5
2022-10-07T07:15:02.299Z,11.42
2022-10-07T07:20:03.023Z,11.8
2022-10-07T07:25:02.668Z,12.77
2022-10-07T07:30:02.366Z,14.19
2022-10-07T07:35:03.020Z,14.05
2022-10-07T07:40:02.694Z,13.63
2022-10-07T07:45:02.435Z,13.77
2022-10-07T07:50:02.516Z,14.17
2022-10-07T07:55:04.678Z,13.91
2022-10-07T08:00:02.982Z,14.59
2022-10-07T08:05:02.598Z,14.65
2022-10-07T08:10:02.359Z,14.7
2022-10-07T08:15:03.037Z,14.79
2022-10-07T08:20:02.749Z,15.17
2022-10-07T08:25:02.371Z,15.13
2022-10-07T08:30:03.082Z,15.44
2022-10-07T08:35:02.719Z,16.9
2022-10-07T08:40:02.462Z,16.52
2022-10-07T08:45:03.189Z,15.51
2022-10-07T08:50:02.790Z,15.08
2022-10-07T08:55:03.961Z,17.15
2022-10-07T09:00:02.318Z,17.75
2022-10-07T09:05:02.978Z,17.48
2022-10-07T09:10:02.699Z,17.69
2022-10-07T09:15:02.912Z,19.68
2022-10-07T09:20:02.345Z,18.43
2022-10-07T09:25:09.094Z,17.22
2022-10-07T09:30:03.391Z,19.43
2022-10-07T09:35:03.197Z,19.08
2022-10-07T09:40:02.953Z,18.29
2022-10-07T09:45:02.536Z,18.97
2022-10-07T09:50:03.114Z,19.14
2022-10-07T09:55:04.050Z,19.05
2022-10-07T10:00:02.433Z,18.45
2022-10-07T10:05:03.124Z,19.4
2022-10-07T10:10:02.887Z,19.65
2022-10-07T10:15:02.485Z,20.29
2022-10-07T10:20:03.193Z,19.87
2022-10-07T10:25:03.059Z,20.78
2022-10-07T10:30:02.775Z,18.64
2022-10-07T10:35:02.386Z,20.14
2022-10-07T10:40:03.064Z,19.58
2022-10-07T10:45:02.791Z,19.53
2022-10-07T10:50:03.236Z,20.54
2022-10-07T10:55:04.129Z,21.09
2022-10-07T11:00:02.602Z,20.1
2022-10-07T11:05:02.595Z,20.84
2022-10-07T11:10:02.429Z,19.11
2022-10-07T11:15:03.083Z,19.02
2022-10-07T11:20:02.824Z,18.44
2022-10-07T11:25:02.455Z,18.71
2022-10-07T11:30:02.454Z,19.05
2022-10-07T11:35:03.172Z,18.54
2022-10-07T11:40:02.909Z,19.07
2022-10-07T11:45:03.342Z,18.53
2022-10-07T11:50:02.461Z,19.36
2022-10-07T11:55:04.992Z,19.29
2022-10-07T12:00:02.788Z,19.36
2022-10-07T12:05:02.493Z,19.72
2022-10-07T12:10:03.155Z,19.17
2022-10-07T12:15:02.881Z,19.28
2022-10-07T12:20:02.643Z,19.74
2022-10-07T12:25:02.299Z,19.42
2022-10-07T12:30:03.026Z,20.27
2022-10-07T12:35:02.633Z,19.41
2022-10-07T12:40:02.367Z,20.04
2022-10-07T12:45:03.195Z,19.88
2022-10-07T12:50:02.992Z,20.12
2022-10-07T12:55:04.030Z,19.96
2022-10-07T13:00:03.328Z,19.84
2022-10-07T13:05:02.884Z,20.4
2022-10-07T13:10:02.553Z,20.55
2022-10-07T13:15:02.521Z,19.92
2022-10-07T13:20:03.294Z,19.96
2022-10-07T13:25:03.029Z,20.96
2022-10-07T13:30:02.934Z,19.92
2022-10-07T13:35:02.597Z,20.38
2022-10-07T13:40:03.522Z,20.52
2022-10-07T13:45:02.960Z,20.34
2022-10-07T13:55:04.286Z,21.14
2022-10-07T14:00:02.748Z,19.49
2022-10-07T14:05:02.627Z,20.5
2022-10-07T14:10:03.238Z,20.44
2022-10-07T14:15:02.983Z,20.3
2022-10-07T14:20:02.939Z,20.69
2022-10-07T14:25:03.429Z,20.56
2022-10-07T14:30:02.999Z,20.5
2022-10-07T14:35:02.570Z,20.24
2022-10-07T14:40:03.258Z,20.6
2022-10-07T14:45:02.932Z,20.52
2022-10-07T14:50:02.564Z,20.99
2022-10-07T14:55:04.700Z,20.36
2022-10-07T15:00:02.757Z,20.55
2022-10-07T15:05:02.682Z,20
2022-10-07T15:10:03.276Z,19.68
2022-10-07T15:15:02.952Z,19.77
2022-10-07T15:20:02.603Z,19.23
2022-10-07T15:25:03.203Z,18.85
2022-10-07T15:30:02.884Z,18.77
2022-10-07T15:35:02.488Z,18.12
2022-10-07T15:40:03.118Z,16.97
2022-10-07T15:45:02.783Z,16.33
2022-10-07T15:50:02.711Z,15.88
2022-10-07T15:55:08.460Z,15.55
2022-10-07T16:00:03.218Z,15.38
2022-10-07T16:05:02.866Z,15.38
2022-10-07T16:10:02.455Z,15.37
2022-10-07T16:15:03.003Z,15.18
2022-10-07T16:20:04.668Z,14.81
2022-10-07T16:25:02.339Z,14.34
2022-10-07T16:30:02.995Z,14.07
2022-10-07T16:35:02.744Z,14.06
2022-10-07T16:40:02.939Z,14.05
2022-10-07T16:45:03.295Z,14.04
2022-10-07T16:50:10.853Z,14.2
2022-10-07T16:55:04.048Z,14.14
2022-10-07T17:00:02.535Z,13.92
2022-10-07T17:05:03.282Z,13.82
2022-10-07T17:10:03.018Z,13.55
2022-10-07T17:15:02.583Z,13.35
2022-10-07T17:20:02.359Z,13.09
2022-10-07T17:25:03.074Z,12.96
2022-10-07T17:30:02.638Z,12.96
2022-10-07T17:35:02.342Z,12.97
2022-10-07T17:40:03.167Z,13.08
2022-10-07T17:45:02.788Z,13.04
2022-10-07T17:50:02.382Z,12.95
2022-10-07T17:55:03.713Z,12.9
2022-10-07T18:00:03.379Z,12.99
2022-10-07T18:05:03.089Z,12.72
2022-10-07T18:10:02.580Z,12.63
2022-10-07T18:15:03.252Z,12.44
2022-10-07T18:20:02.929Z,11.94
2022-10-07T18:25:02.537Z,11.94
2022-10-07T18:30:03.097Z,11.65
2022-10-07T18:35:02.672Z,11.03
2022-10-07T18:40:03.343Z,11.71
2022-10-07T18:45:03.370Z,11.99
2022-10-07T18:50:02.843Z,11.96
2022-10-07T18:55:03.780Z,12.24
2022-10-07T19:00:03.143Z,12.31
2022-10-07T19:05:02.623Z,11.63
2022-10-07T19:10:02.233Z,11.02
2022-10-07T19:15:02.997Z,11.56
2022-10-07T19:20:02.736Z,11.69
2022-10-07T19:25:02.364Z,11.62
2022-10-07T19:30:03.022Z,11.47
2022-10-07T19:35:02.632Z,11.27
2022-10-07T19:40:02.254Z,11.34
2022-10-07T19:45:02.901Z,11.26
2022-10-07T19:50:02.490Z,10.81
2022-10-07T19:55:04.529Z,9.72
2022-10-07T20:00:03.034Z,10.77
2022-10-07T20:05:02.761Z,10.76
2022-10-07T20:10:02.377Z,10.76
2022-10-07T20:15:03.022Z,11.05
2022-10-07T20:20:02.553Z,11.2
2022-10-07T20:25:03.171Z,11.12
2022-10-07T20:30:02.993Z,11
2022-10-07T20:35:02.582Z,10.91
2022-10-07T20:40:03.251Z,11.09
2022-10-07T20:45:02.792Z,11.16
2022-10-07T20:50:02.437Z,11.27
2022-10-07T20:55:04.468Z,11.23
2022-10-07T21:00:02.648Z,11.16
2022-10-07T21:05:03.267Z,11
2022-10-07T21:10:02.958Z,10.68
2022-10-07T21:15:02.832Z,10.63
2022-10-07T21:20:02.607Z,10.68
2022-10-07T21:25:03.082Z,10.67
2022-10-07T21:30:02.759Z,10.65
2022-10-07T21:35:03.350Z,10.58
2022-10-07T21:40:02.979Z,10.54
2022-10-07T21:45:02.704Z,10.58
2022-10-07T21:50:03.078Z,10.63
2022-10-07T21:55:04.328Z,10.56
2022-10-07T22:00:02.988Z,10.54
2022-10-07T22:05:02.515Z,10.53
2022-10-07T22:10:03.181Z,10.55
2022-10-07T22:15:02.889Z,10.56
2022-10-07T22:20:02.633Z,10.49
2022-10-07T22:25:03.261Z,10.39
2022-10-07T22:30:02.943Z,10.33
2022-10-07T22:35:02.547Z,10.33
2022-10-07T22:40:03.198Z,10.4
2022-10-07T22:45:02.862Z,10.55
2022-10-07T22:50:02.510Z,10.73
2022-10-07T22:55:04.208Z,10.78
2022-10-07T23:00:02.686Z,10.74
2022-10-07T23:05:02.346Z,10.71
2022-10-07T23:10:02.992Z,10.77
2022-10-07T23:15:02.650Z,10.76
2022-10-07T23:20:03.314Z,10.77
2022-10-07T23:25:03.042Z,10.77
2022-10-07T23:30:02.734Z,10.74
2022-10-07T23:35:02.403Z,10.68
2022-10-07T23:40:03.077Z,10.67
2022-10-07T23:45:02.910Z,10.68
2022-10-07T23:50:03.485Z,10.69
2022-10-07T23:55:03.992Z,10.7
